Time;durP1;ratioP1;P1;durP2;ratioP2;P2;SDS_P1;SDS_P2;PMS_P1;PMS_P2;Temp;Humidity;BMP_temperature;BMP_pressure;BME280_temperature;BME280_humidity;BME280_pressure;Samples;Min_cycle;Max_cycle;Signal;HPM_P1;HPM_P2
2023/01/15 00:01:34;;;;;;;;;;;;;;;;;;5093591;28;20342;-68
2023/01/15 00:04:02;;;;;;;;;;;;;;;;;;5093438;28;20314;-70
2023/01/15 00:06:28;;;;;;;;;;;;;;;;;;5091833;28;19916;-68
2023/01/15 00:08:54;;;;;;;;;;;;;;;;;;5093571;28;19915;-68
2023/01/15 00:11:20;;;;;;;;;;;;;;;;;;5093523;28;19950;-68
2023/01/15 00:13:46;;;;;;;;;;;;;;;;;;5093066;28;19909;-68
2023/01/15 00:16:12;;;;;;;;;;;;;;;;;;5093870;28;20015;-68
2023/01/15 00:18:38;;;;;;;;;;;;;;;;;;5093336;28;19912;-68
2023/01/15 00:21:03;;;;;;;;;;;;;;;;;;5093132;28;19955;-68
2023/01/15 00:28:59;;;;;;;;;;;;;;;;;;5094043;28;19977;-70
2023/01/15 00:31:25;;;;;;;;;;;;;;;;;;5097223;28;20368;-69
2023/01/15 00:33:50;;;;;;;;;;;;;;;;;;5096848;28;19908;-68
2023/01/15 00:36:16;;;;;;;;;;;;;;;;;;5096466;28;19943;-68
2023/01/15 00:38:42;;;;;;;;;;;;;;;;;;5096859;28;19908;-68
2023/01/15 00:41:08;;;;;;;;;;;;;;;;;;5096626;28;19947;-68
2023/01/15 00:43:34;;;;;;;;;;;;;;;;;;5096921;28;19960;-68
2023/01/15 00:46:00;;;;;;;;;;;;;;;;;;5095263;28;19916;-69
2023/01/15 00:48:26;;;;;;;;;;;;;;;;;;5096114;28;19908;-68
2023/01/15 00:50:52;;;;;;;;;;;;;;;;;;5096655;28;20007;-68
2023/01/15 00:53:18;;;;;;;;;;;;;;;;;;5095289;28;19954;-69
2023/01/15 00:55:44;;;;;;;;;;;;;;;;;;5096105;28;19908;-68
2023/01/15 00:58:10;;;;;;;;;;;;;;;;;;5095132;28;19908;-68
2023/01/15 01:00:36;;;;;;;;;;;;;;;;;;5096334;28;19908;-68
2023/01/15 01:03:02;;;;;;;;;;;;;;;;;;5095869;28;19919;-68
2023/01/15 01:05:28;;;;;;;;;;;;;;;;;;5096073;28;19966;-68
2023/01/15 01:07:54;;;;;;;;;;;;;;;;;;5096159;28;19961;-68
2023/01/15 01:10:20;;;;;;;;;;;;;;;;;;5095752;28;19953;-68
2023/01/15 01:12:47;;;;;;;;;;;;;;;;;;5096299;28;19974;-68
2023/01/15 01:15:13;;;;;;;;;;;;;;;;;;5096051;28;19966;-68
2023/01/15 01:17:39;;;;;;;;;;;;;;;;;;5095658;28;19912;-69
2023/01/15 01:20:05;;;;;;;;;;;;;;;;;;5095990;28;19908;-69
2023/01/15 01:22:32;;;;;;;;;;;;;;;;;;5094616;28;19997;-68
2023/01/15 01:24:58;;;;;;;;;;;;;;;;;;5094185;28;20291;-69
2023/01/15 01:27:24;;;;;;;;;;;;;;;;;;5095848;28;19995;-68
2023/01/15 01:29:50;;;;;;;;;;;;;;;;;;5095816;28;19908;-69
2023/01/15 01:32:16;;;;;;;;;;;;;;;;;;5095391;28;19915;-68
2023/01/15 01:34:42;;;;;;;;;;;;;;;;;;5095714;28;19918;-68
2023/01/15 01:37:08;;;;;;;;;;;;;;;;;;5094415;28;19908;-68
2023/01/15 01:39:34;;;;;;;;;;;;;;;;;;5095029;28;19915;-68
2023/01/15 01:42:00;;;;;;;;;;;;;;;;;;5095626;28;19908;-68
2023/01/15 01:44:25;;;;;;;;;;;;;;;;;;5095480;28;19908;-68
2023/01/15 01:46:51;;;;;;;;;;;;;;;;;;5095416;28;19994;-68
2023/01/15 01:49:17;;;;;;;;;;;;;;;;;;5095434;28;19915;-69
2023/01/15 01:51:43;;;;;;;;;;;;;;;;;;5093648;28;19915;-69
2023/01/15 01:54:09;;;;;;;;;;;;;;;;;;5095289;28;19991;-68
2023/01/15 01:56:35;;;;;;;;;;;;;;;;;;5095328;28;19912;-69
2023/01/15 01:59:01;;;;;;;;;;;;;;;;;;5094797;28;19908;-68
2023/01/15 02:01:27;;;;;;;;;;;;;;;;;;5095215;28;19955;-68
2023/01/15 02:03:53;;;;;;;;;;;;;;;;;;5094981;28;19962;-69
2023/01/15 02:06:19;;;;;;;;;;;;;;;;;;5094636;28;19920;-68
2023/01/15 02:08:45;;;;;;;;;;;;;;;;;;5095041;28;19908;-68
2023/01/15 02:11:11;;;;;;;;;;;;;;;;;;5095001;28;19998;-68
2023/01/15 02:13:37;;;;;;;;;;;;;;;;;;5094665;28;20283;-68
2023/01/15 02:16:03;;;;;;;;;;;;;;;;;;5093643;28;19944;-69
2023/01/15 02:18:29;;;;;;;;;;;;;;;;;;5094872;28;20365;-68
2023/01/15 02:20:55;;;;;;;;;;;;;;;;;;5094676;28;19981;-68
2023/01/15 02:23:21;;;;;;;;;;;;;;;;;;5094731;28;19908;-68
2023/01/15 02:25:47;;;;;;;;;;;;;;;;;;5094686;28;19916;-68
2023/01/15 02:28:13;;;;;;;;;;;;;;;;;;5094278;28;19915;-68
2023/01/15 02:30:39;;;;;;;;;;;;;;;;;;5094643;28;19916;-68
2023/01/15 02:33:05;;;;;;;;;;;;;;;;;;5094646;28;20037;-68
2023/01/15 02:35:31;;;;;;;;;;;;;;;;;;5094240;28;19912;-68
2023/01/15 02:37:57;;;;;;;;;;;;;;;;;;5094611;28;19935;-68
2023/01/15 02:40:23;;;;;;;;;;;;;;;;;;5094733;28;19954;-68
2023/01/15 02:42:49;;;;;;;;;;;;;;;;;;5094022;28;19908;-69
2023/01/15 02:45:15;;;;;;;;;;;;;;;;;;5094340;28;20007;-69
2023/01/15 02:47:40;;;;;;;;;;;;;;;;;;5094413;28;19970;-68
2023/01/15 02:50:06;;;;;;;;;;;;;;;;;;5093893;28;19908;-68
2023/01/15 02:52:32;;;;;;;;;;;;;;;;;;5093787;28;20340;-68
2023/01/15 02:54:58;;;;;;;;;;;;;;;;;;5093870;28;20267;-68
2023/01/15 02:57:24;;;;;;;;;;;;;;;;;;5092951;28;20364;-68
2023/01/15 02:59:50;;;;;;;;;;;;;;;;;;5094737;28;20417;-68
2023/01/15 03:02:16;;;;;;;;;;;;;;;;;;5093763;28;20360;-68
2023/01/15 03:04:42;;;;;;;;;;;;;;;;;;5094102;28;20380;-69
2023/01/15 03:07:08;;;;;;;;;;;;;;;;;;5094141;28;19916;-68
2023/01/15 03:09:34;;;;;;;;;;;;;;;;;;5093655;28;20423;-67
2023/01/15 03:12:00;;;;;;;;;;;;;;;;;;5094041;28;20405;-68
2023/01/15 03:14:26;;;;;;;;;;;;;;;;;;5094021;28;20276;-67
2023/01/15 03:16:51;;;;;;;;;;;;;;;;;;5093775;28;20386;-68
2023/01/15 03:19:17;;;;;;;;;;;;;;;;;;5094023;28;20369;-67
2023/01/15 03:21:43;;;;;;;;;;;;;;;;;;5094362;28;20372;-68
2023/01/15 03:24:09;;;;;;;;;;;;;;;;;;5092343;28;19958;-67
2023/01/15 03:26:35;;;;;;;;;;;;;;;;;;5093862;28;20280;-67
2023/01/15 03:29:01;;;;;;;;;;;;;;;;;;5092547;28;20261;-69
2023/01/15 03:31:27;;;;;;;;;;;;;;;;;;5092202;28;19917;-69
2023/01/15 03:33:53;;;;;;;;;;;;;;;;;;5093876;28;19915;-67
2023/01/15 03:36:19;;;;;;;;;;;;;;;;;;5093905;28;19908;-68
2023/01/15 03:38:46;;;;;;;;;;;;;;;;;;5092113;28;19909;-68
2023/01/15 03:41:12;;;;;;;;;;;;;;;;;;5092504;28;19919;-68
2023/01/15 03:43:41;;;;;;;;;;;;;;;;;;5093765;28;20280;-68
2023/01/15 03:46:06;;;;;;;;;;;;;;;;;;5093259;28;19959;-68
2023/01/15 03:48:32;;;;;;;;;;;;;;;;;;5093870;28;19954;-68
2023/01/15 03:50:58;;;;;;;;;;;;;;;;;;5093686;28;19974;-68
2023/01/15 03:53:24;;;;;;;;;;;;;;;;;;5093256;28;19908;-69
2023/01/15 03:55:50;;;;;;;;;;;;;;;;;;5093685;28;19970;-68
2023/01/15 03:58:16;;;;;;;;;;;;;;;;;;5093245;28;19969;-68
2023/01/15 04:00:42;;;;;;;;;;;;;;;;;;5093795;28;19912;-68
2023/01/15 04:03:08;;;;;;;;;;;;;;;;;;5093843;28;20364;-68
2023/01/15 04:05:34;;;;;;;;;;;;;;;;;;5096546;28;19926;-68
2023/01/15 04:08:00;;;;;;;;;;;;;;;;;;5097384;28;19967;-68
2023/01/15 04:10:26;;;;;;;;;;;;;;;;;;5096314;28;19915;-68
2023/01/15 04:12:52;;;;;;;;;;;;;;;;;;5096921;28;19912;-68
2023/01/15 04:15:18;;;;;;;;;;;;;;;;;;5096021;28;19908;-69
2023/01/15 04:17:44;;;;;;;;;;;;;;;;;;5097208;28;19908;-69
2023/01/15 04:20:10;;;;;;;;;;;;;;;;;;5095605;28;20284;-68
2023/01/15 04:22:36;;;;;;;;;;;;;;;;;;5097361;28;19966;-68
2023/01/15 04:25:02;;;;;;;;;;;;;;;;;;5095816;28;19912;-69
2023/01/15 04:27:28;;;;;;;;;;;;;;;;;;5096755;28;19909;-67
2023/01/15 04:29:54;;;;;;;;;;;;;;;;;;5097057;28;19908;-68
2023/01/15 04:32:20;;;;;;;;;;;;;;;;;;5096936;28;19951;-68
2023/01/15 04:34:45;;;;;;;;;;;;;;;;;;5096636;28;19916;-68
2023/01/15 04:37:11;;;;;;;;;;;;;;;;;;5095558;28;19912;-69
2023/01/15 04:39:37;;;;;;;;;;;;;;;;;;5095537;28;20368;-69
2023/01/15 04:44:48;;;;;;;;;;;;;;;;;;5096644;28;19915;-68
2023/01/15 04:47:14;;;;;;;;;;;;;;;;;;5096657;28;19908;-68
2023/01/15 04:49:40;;;;;;;;;;;;;;;;;;5096176;28;19919;-68
2023/01/15 04:52:05;;;;;;;;;;;;;;;;;;5095246;28;20011;-67
2023/01/15 04:54:32;;;;;;;;;;;;;;;;;;5094794;28;19912;-68
2023/01/15 04:56:57;;;;;;;;;;;;;;;;;;5096500;28;19908;-68
2023/01/15 04:59:23;;;;;;;;;;;;;;;;;;5095134;28;19908;-67
2023/01/15 05:01:49;;;;;;;;;;;;;;;;;;5095920;28;19908;-68
2023/01/15 05:04:15;;;;;;;;;;;;;;;;;;5096346;28;19924;-68
2023/01/15 05:06:41;;;;;;;;;;;;;;;;;;5096169;28;20147;-68
2023/01/15 05:09:07;;;;;;;;;;;;;;;;;;5095807;28;19908;-68
2023/01/15 05:11:33;;;;;;;;;;;;;;;;;;5094909;28;20002;-68
2023/01/15 05:13:59;;;;;;;;;;;;;;;;;;5096017;28;19969;-68
2023/01/15 05:16:25;;;;;;;;;;;;;;;;;;5095447;28;20041;-68
2023/01/15 05:18:51;;;;;;;;;;;;;;;;;;5094784;28;19908;-68
2023/01/15 05:21:17;;;;;;;;;;;;;;;;;;5094703;28;19908;-68
2023/01/15 05:23:43;;;;;;;;;;;;;;;;;;5095462;28;19908;-67
2023/01/15 05:26:09;;;;;;;;;;;;;;;;;;5095848;28;19971;-68
2023/01/15 05:28:35;;;;;;;;;;;;;;;;;;5096178;28;19915;-69
2023/01/15 05:31:01;;;;;;;;;;;;;;;;;;5095441;28;19959;-69
2023/01/15 05:33:27;;;;;;;;;;;;;;;;;;5096033;28;19908;-70
2023/01/15 05:35:53;;;;;;;;;;;;;;;;;;5094473;28;19908;-68
2023/01/15 05:38:19;;;;;;;;;;;;;;;;;;5095299;28;19908;-69
2023/01/15 05:40:44;;;;;;;;;;;;;;;;;;5094298;28;19915;-68
2023/01/15 05:43:10;;;;;;;;;;;;;;;;;;5095551;28;19995;-69
2023/01/15 05:45:36;;;;;;;;;;;;;;;;;;5093807;28;19916;-70
2023/01/15 05:48:02;;;;;;;;;;;;;;;;;;5094191;28;20300;-67
2023/01/15 05:50:28;;;;;;;;;;;;;;;;;;5095387;28;19908;-68
2023/01/15 05:52:54;;;;;;;;;;;;;;;;;;5093687;28;19915;-69
2023/01/15 05:55:20;;;;;;;;;;;;;;;;;;5094097;28;19961;-68
2023/01/15 05:57:48;;;;;;;;;;;;;;;;;;5095338;28;20368;-68
2023/01/15 06:00:13;;;;;;;;;;;;;;;;;;5095832;28;19908;-68
2023/01/15 06:02:39;;;;;;;;;;;;;;;;;;5095151;28;19908;-67
2023/01/15 06:05:05;;;;;;;;;;;;;;;;;;5094454;28;19924;-68
2023/01/15 06:07:31;;;;;;;;;;;;;;;;;;5095303;28;20073;-68
2023/01/15 06:09:57;;;;;;;;;;;;;;;;;;5095288;28;19987;-68
2023/01/15 06:12:23;;;;;;;;;;;;;;;;;;5094658;28;19915;-68
2023/01/15 06:14:49;;;;;;;;;;;;;;;;;;5095074;28;20364;-68
2023/01/15 06:17:15;;;;;;;;;;;;;;;;;;5094885;28;20360;-68
2023/01/15 06:19:41;;;;;;;;;;;;;;;;;;5094666;28;19908;-68
2023/01/15 06:22:07;;;;;;;;;;;;;;;;;;5094895;28;20336;-68
2023/01/15 06:24:33;;;;;;;;;;;;;;;;;;5094784;28;20294;-68
2023/01/15 06:26:59;;;;;;;;;;;;;;;;;;5093576;28;20292;-68
2023/01/15 06:29:25;;;;;;;;;;;;;;;;;;5094891;28;20371;-68
2023/01/15 06:31:51;;;;;;;;;;;;;;;;;;5094625;28;19915;-68
2023/01/15 06:34:17;;;;;;;;;;;;;;;;;;5092917;28;19953;-68
2023/01/15 06:36:43;;;;;;;;;;;;;;;;;;5094820;28;19915;-69
2023/01/15 06:39:08;;;;;;;;;;;;;;;;;;5094552;28;19909;-69
2023/01/15 06:47:20;;;;;;;;;;;;;;;;;;5078112;28;19916;-68
2023/01/15 06:49:46;;;;;;;;;;;;;;;;;;5094704;28;19931;-68
2023/01/15 06:52:12;;;;;;;;;;;;;;;;;;5094832;28;19913;-69
2023/01/15 06:54:38;;;;;;;;;;;;;;;;;;5093885;28;19994;-68
2023/01/15 06:57:04;;;;;;;;;;;;;;;;;;5092975;28;20364;-69
2023/01/15 06:59:30;;;;;;;;;;;;;;;;;;5094241;28;19962;-68
2023/01/15 07:01:56;;;;;;;;;;;;;;;;;;5093943;28;19908;-68
2023/01/15 07:04:22;;;;;;;;;;;;;;;;;;5093955;28;19920;-68
2023/01/15 07:06:48;;;;;;;;;;;;;;;;;;5094408;28;19923;-68
2023/01/15 07:09:13;;;;;;;;;;;;;;;;;;5093689;28;20435;-68
2023/01/15 07:11:48;;;;;;;;;;;;;;;;;;5094257;28;20348;-69
2023/01/15 07:14:14;;;;;;;;;;;;;;;;;;5094376;28;20356;-68
2023/01/15 07:16:40;;;;;;;;;;;;;;;;;;5093659;28;19915;-69
2023/01/15 07:19:06;;;;;;;;;;;;;;;;;;5094485;28;20347;-68
2023/01/15 07:21:32;;;;;;;;;;;;;;;;;;5094013;28;20276;-68
2023/01/15 07:23:57;;;;;;;;;;;;;;;;;;5093594;28;19908;-69
2023/01/15 07:26:23;;;;;;;;;;;;;;;;;;5093902;28;20432;-68
2023/01/15 07:28:49;;;;;;;;;;;;;;;;;;5094017;28;19954;-68
2023/01/15 07:31:15;;;;;;;;;;;;;;;;;;5093384;28;19939;-68
2023/01/15 07:33:41;;;;;;;;;;;;;;;;;;5092558;28;19908;-68
2023/01/15 07:36:07;;;;;;;;;;;;;;;;;;5093456;28;19908;-68
2023/01/15 07:38:33;;;;;;;;;;;;;;;;;;5094766;28;19914;-68
2023/01/15 07:51:58;;;;;;;;;;;;;;;;;;5097427;28;19937;-68
2023/01/15 07:54:24;;;;;;;;;;;;;;;;;;5097695;28;19908;-69
2023/01/15 07:56:49;;;;;;;;;;;;;;;;;;5097695;28;19953;-69
2023/01/15 07:59:15;;;;;;;;;;;;;;;;;;5095906;28;19956;-69
2023/01/15 08:01:41;;;;;;;;;;;;;;;;;;5096247;28;19912;-69
2023/01/15 08:04:08;;;;;;;;;;;;;;;;;;5097315;28;19951;-68
2023/01/15 08:06:34;;;;;;;;;;;;;;;;;;5097034;28;19916;-68
2023/01/15 08:09:00;;;;;;;;;;;;;;;;;;5097405;28;19908;-68
2023/01/15 08:16:55;;;;;;;;;;;;;;;;;;5097285;28;19958;-68
2023/01/15 08:19:23;;;;;;;;;;;;;;;;;;5096827;28;19943;-68
2023/01/15 08:21:49;;;;;;;;;;;;;;;;;;5097177;28;19963;-69
2023/01/15 08:24:15;;;;;;;;;;;;;;;;;;5095807;28;19916;-69
2023/01/15 08:26:41;;;;;;;;;;;;;;;;;;5096678;28;19916;-69
2023/01/15 08:29:07;;;;;;;;;;;;;;;;;;5097192;28;19951;-69
2023/01/15 08:31:33;;;;;;;;;;;;;;;;;;5097251;28;19908;-69
2023/01/15 08:33:59;;;;;;;;;;;;;;;;;;5096639;28;19915;-68
2023/01/15 08:36:25;;;;;;;;;;;;;;;;;;5096931;28;20375;-68
2023/01/15 08:38:51;;;;;;;;;;;;;;;;;;5096787;28;19909;-68
2023/01/15 08:41:17;;;;;;;;;;;;;;;;;;5096444;28;19908;-69
2023/01/15 08:43:44;;;;;;;;;;;;;;;;;;5096744;28;20008;-68
2023/01/15 08:46:10;;;;;;;;;;;;;;;;;;5095419;28;20383;-69
2023/01/15 08:48:36;;;;;;;;;;;;;;;;;;5096547;28;19951;-69
2023/01/15 08:51:02;;;;;;;;;;;;;;;;;;5095733;28;19948;-69
2023/01/15 08:53:28;;;;;;;;;;;;;;;;;;5096426;28;19954;-69
2023/01/15 08:55:54;;;;;;;;;;;;;;;;;;5096702;28;19912;-69
2023/01/15 08:58:20;;;;;;;;;;;;;;;;;;5096732;28;19908;-70
2023/01/15 09:00:47;;;;;;;;;;;;;;;;;;5094808;28;19908;-69
2023/01/15 09:03:13;;;;;;;;;;;;;;;;;;5096338;28;19912;-70
2023/01/15 09:05:39;;;;;;;;;;;;;;;;;;5096121;28;19927;-69
2023/01/15 09:08:05;;;;;;;;;;;;;;;;;;5096020;28;19915;-68
2023/01/15 09:10:31;;;;;;;;;;;;;;;;;;5094967;28;19908;-69
2023/01/15 09:12:57;;;;;;;;;;;;;;;;;;5096191;28;19916;-68
2023/01/15 09:15:23;;;;;;;;;;;;;;;;;;5095811;28;19908;-68
2023/01/15 09:17:48;;;;;;;;;;;;;;;;;;5096247;28;20494;-69
2023/01/15 09:20:14;;;;;;;;;;;;;;;;;;5096060;28;19915;-68
2023/01/15 09:22:40;;;;;;;;;;;;;;;;;;5095730;28;20372;-69
2023/01/15 09:25:06;;;;;;;;;;;;;;;;;;5095864;28;20417;-68
2023/01/15 09:27:33;;;;;;;;;;;;;;;;;;5095895;28;19912;-68
2023/01/15 09:29:59;;;;;;;;;;;;;;;;;;5095413;28;19954;-69
2023/01/15 09:32:25;;;;;;;;;;;;;;;;;;5095906;28;19912;-69
2023/01/15 09:34:51;;;;;;;;;;;;;;;;;;5095926;28;19908;-70
2023/01/15 09:37:17;;;;;;;;;;;;;;;;;;5095410;28;20360;-68
2023/01/15 09:39:43;;;;;;;;;;;;;;;;;;5095679;28;19908;-68
2023/01/15 09:42:09;;;;;;;;;;;;;;;;;;5095587;28;19969;-68
2023/01/15 09:44:35;;;;;;;;;;;;;;;;;;5095091;28;20045;-68
2023/01/15 09:47:01;;;;;;;;;;;;;;;;;;5095766;28;20374;-69
2023/01/15 09:49:27;;;;;;;;;;;;;;;;;;5095839;28;20361;-68
2023/01/15 09:51:52;;;;;;;;;;;;;;;;;;5095026;28;19908;-69
2023/01/15 09:54:18;;;;;;;;;;;;;;;;;;5095414;28;19908;-69
2023/01/15 09:56:44;;;;;;;;;;;;;;;;;;5094164;28;19946;-69
2023/01/15 09:59:10;;;;;;;;;;;;;;;;;;5095001;28;19908;-69
2023/01/15 10:01:36;;;;;;;;;;;;;;;;;;5095271;28;19957;-69
2023/01/15 10:04:02;;;;;;;;;;;;;;;;;;5094652;28;19924;-69
2023/01/15 10:06:28;;;;;;;;;;;;;;;;;;5093873;28;19922;-69
2023/01/15 10:08:54;;;;;;;;;;;;;;;;;;5095056;28;20015;-68
2023/01/15 10:11:21;;;;;;;;;;;;;;;;;;5094714;28;19915;-68
2023/01/15 10:13:46;;;;;;;;;;;;;;;;;;5095056;28;19908;-70
2023/01/15 10:16:12;;;;;;;;;;;;;;;;;;5093776;28;19916;-69
2023/01/15 10:18:42;;;;;;;;;;;;;;;;;;5094581;28;19908;-69
2023/01/15 10:21:08;;;;;;;;;;;;;;;;;;5094868;28;19960;-69
2023/01/15 10:23:39;;;;;;;;;;;;;;;;;;5094794;28;20002;-69
2023/01/15 10:26:05;;;;;;;;;;;;;;;;;;5094274;28;19922;-69
2023/01/15 10:33:41;;;;;;;;;;;;;;;;;;5111394;27;19916;-68
2023/01/15 10:36:07;;;;;;;;;;;;;;;;;;5111796;28;19919;-68
2023/01/15 10:38:33;;;;;;;;;;;;;;;;;;5112016;28;20364;-68
2023/01/15 10:40:59;;;;;;;;;;;;;;;;;;5111449;28;20394;-69
2023/01/15 10:43:25;;;;;;;;;;;;;;;;;;5111671;28;19962;-69
2023/01/15 10:45:51;;;;;;;;;;;;;;;;;;5111678;28;20003;-69
2023/01/15 10:48:17;;;;;;;;;;;;;;;;;;5109934;28;19908;-69
2023/01/15 10:52:19;;;;;;;;;;;;;;;;;;5111878;27;19916;-69
2023/01/15 10:54:45;;;;;;;;;;;;;;;;;;5111405;28;20439;-70
2023/01/15 10:57:11;;;;;;;;;;;;;;;;;;5111731;28;19969;-69
2023/01/15 10:59:38;;;;;;;;;;;;;;;;;;5111715;28;19931;-69
2023/01/15 11:02:03;;;;;;;;;;;;;;;;;;5111245;28;19908;-69
2023/01/15 11:04:29;;;;;;;;;;;;;;;;;;5110660;28;20269;-69
2023/01/15 11:06:55;;;;;;;;;;;;;;;;;;5111597;28;20340;-69
2023/01/15 11:09:21;;;;;;;;;;;;;;;;;;5111191;28;19908;-69
2023/01/15 11:19:55;;;;;;;;;;;;;;;;;;5111402;28;19953;-68
2023/01/15 11:22:21;;;;;;;;;;;;;;;;;;5111237;28;20372;-69
2023/01/15 11:24:47;;;;;;;;;;;;;;;;;;5111168;28;20349;-68
2023/01/15 11:28:45;;;;;;;;;;;;;;;;;;5112000;27;20295;-68
2023/01/15 11:31:11;;;;;;;;;;;;;;;;;;5112438;28;20388;-69
2023/01/15 11:33:37;;;;;;;;;;;;;;;;;;5110474;28;19934;-68
2023/01/15 11:36:02;;;;;;;;;;;;;;;;;;5111410;28;19912;-68
2023/01/15 11:38:28;;;;;;;;;;;;;;;;;;5111650;28;19917;-68
2023/01/15 11:40:55;;;;;;;;;;;;;;;;;;5111850;28;19915;-68
2023/01/15 11:54:24;;;;;;;;;;;;;;;;;;5112006;27;19915;-70
2023/01/15 11:59:33;;;;;;;;;;;;;;;;;;5112322;27;19922;-68
2023/01/15 12:03:01;;;;;;;;;;;;;;;;;;5112162;27;19923;-69
2023/01/15 12:06:16;;;;;;;;;;;;;;;;;;5112088;27;19916;-69
2023/01/15 12:08:42;;;;;;;;;;;;;;;;;;5110558;28;20344;-69
2023/01/15 12:11:13;;;;;;;;;;;;;;;;;;5111330;28;19994;-69
2023/01/15 12:15:25;;;;;;;;;;;;;;;;;;5112036;27;19916;-69
2023/01/15 12:18:40;;;;;;;;;;;;;;;;;;5111509;27;19916;-69
2023/01/15 12:23:53;;;;;;;;;;;;;;;;;;5112235;27;19916;-69
2023/01/15 12:26:19;;;;;;;;;;;;;;;;;;5110037;28;19961;-69
2023/01/15 12:28:45;;;;;;;;;;;;;;;;;;5111750;28;19912;-69
2023/01/15 12:34:48;;;;;;;;;;;;;;;;;;5112488;27;19916;-68
2023/01/15 12:37:19;;;;;;;;;;;;;;;;;;5112077;28;20011;-68
2023/01/15 12:39:45;;;;;;;;;;;;;;;;;;5111255;28;20360;-68
2023/01/15 12:44:59;;;;;;;;;;;;;;;;;;5111643;28;19961;-68
2023/01/15 12:50:00;;;;;;;;;;;;;;;;;;5112589;27;20272;-70
2023/01/15 12:52:56;;;;;;;;;;;;;;;;;;5123642;27;20218;-70
2023/01/15 12:59:50;;;;;;;;;;;;;;;;;;5111980;27;20297;-70
2023/01/15 13:05:14;;;;;;;;;;;;;;;;;;5092057;27;19923;-72
2023/01/15 13:10:38;;;;;;;;;;;;;;;;;;5112223;27;19915;-70
2023/01/15 13:14:17;;;;;;;;;;;;;;;;;;5111919;27;19915;-69
2023/01/15 13:16:43;;;;;;;;;;;;;;;;;;5110613;28;20455;-69
2023/01/15 13:20:50;;;;;;;;;;;;;;;;;;5091372;28;19916;-69
2023/01/15 13:24:56;;;;;;;;;;;;;;;;;;5111918;27;20299;-70
2023/01/15 13:27:22;;;;;;;;;;;;;;;;;;5110393;28;19911;-70
2023/01/15 13:29:48;;;;;;;;;;;;;;;;;;5111257;28;19908;-69
2023/01/15 13:32:14;;;;;;;;;;;;;;;;;;5110320;28;19959;-69
2023/01/15 13:40:04;;;;;;;;;;;;;;;;;;5111871;27;19923;-69
2023/01/15 13:45:05;;;;;;;;;;;;;;;;;;5112183;27;19916;-69
2023/01/15 13:49:43;;;;;;;;;;;;;;;;;;5111969;27;19923;-70
2023/01/15 13:52:25;;;;;;;;;;;;;;;;;;5112079;27;19912;-69
2023/01/15 13:54:51;;;;;;;;;;;;;;;;;;5111833;28;20015;-70
2023/01/15 13:57:17;;;;;;;;;;;;;;;;;;5111291;28;19912;-70
2023/01/15 13:59:43;;;;;;;;;;;;;;;;;;5111686;28;20360;-69
2023/01/15 14:02:09;;;;;;;;;;;;;;;;;;5112182;28;19908;-70
2023/01/15 14:13:31;;;;;;;;;;;;;;;;;;5112550;27;19919;-69
2023/01/15 14:17:07;;;;;;;;;;;;;;;;;;5112196;27;19916;-69
2023/01/15 14:19:33;;;;;;;;;;;;;;;;;;5111808;28;20003;-69
2023/01/15 14:23:04;;;;;;;;;;;;;;;;;;5112589;27;20295;-69
2023/01/15 14:26:59;;;;;;;;;;;;;;;;;;5112226;27;19915;-68
2023/01/15 14:31:10;;;;;;;;;;;;;;;;;;5111497;27;20375;-68
2023/01/15 14:33:36;;;;;;;;;;;;;;;;;;5110454;28;19999;-70
2023/01/15 14:37:03;;;;;;;;;;;;;;;;;;5111910;27;19916;-68
2023/01/15 14:43:57;;;;;;;;;;;;;;;;;;5112540;27;19916;-69
2023/01/15 14:46:23;;;;;;;;;;;;;;;;;;5111347;28;19999;-69
2023/01/15 14:48:49;;;;;;;;;;;;;;;;;;5110410;28;19908;-68
2023/01/15 14:51:15;;;;;;;;;;;;;;;;;;5111953;28;20280;-68
2023/01/15 14:53:43;;;;;;;;;;;;;;;;;;5111390;28;20346;-72
2023/01/15 14:59:55;;;;;;;;;;;;;;;;;;5091577;27;20410;-69
2023/01/15 15:02:22;;;;;;;;;;;;;;;;;;5091432;28;20007;-70
2023/01/15 15:04:50;;;;;;;;;;;;;;;;;;5091374;28;19962;-70
2023/01/15 15:07:16;;;;;;;;;;;;;;;;;;5090881;28;19978;-70
2023/01/15 15:10:51;;;;;;;;;;;;;;;;;;5112530;27;19916;-68
2023/01/15 15:13:17;;;;;;;;;;;;;;;;;;5111547;28;20003;-67
2023/01/15 15:15:43;;;;;;;;;;;;;;;;;;5110434;28;19941;-69
2023/01/15 15:18:09;;;;;;;;;;;;;;;;;;5111668;28;20292;-69
2023/01/15 15:22:14;;;;;;;;;;;;;;;;;;5111492;27;19916;-69
2023/01/15 15:24:40;;;;;;;;;;;;;;;;;;5110457;28;20011;-69
2023/01/15 15:27:06;;;;;;;;;;;;;;;;;;5111749;28;19961;-69
2023/01/15 15:29:32;;;;;;;;;;;;;;;;;;5109784;28;19908;-68
2023/01/15 15:31:59;;;;;;;;;;;;;;;;;;5110314;28;19943;-69
2023/01/15 15:34:25;;;;;;;;;;;;;;;;;;5111172;28;19908;-68
2023/01/15 15:36:51;;;;;;;;;;;;;;;;;;5111557;28;19968;-68
2023/01/15 15:39:16;;;;;;;;;;;;;;;;;;5111566;28;19916;-68
2023/01/15 15:49:57;;;;;;;;;;;;;;;;;;5110920;28;19915;-68
2023/01/15 15:52:24;;;;;;;;;;;;;;;;;;5111258;28;19953;-69
2023/01/15 15:54:50;;;;;;;;;;;;;;;;;;5109902;28;19908;-70
2023/01/15 15:57:16;;;;;;;;;;;;;;;;;;5110815;28;19908;-69
2023/01/15 15:59:42;;;;;;;;;;;;;;;;;;5111324;28;19908;-69
2023/01/15 16:02:08;;;;;;;;;;;;;;;;;;5111178;28;19961;-69
2023/01/15 16:04:34;;;;;;;;;;;;;;;;;;5109316;28;19919;-69
2023/01/15 16:07:00;;;;;;;;;;;;;;;;;;5110909;28;20049;-68
2023/01/15 16:09:26;;;;;;;;;;;;;;;;;;5109679;28;19908;-69
2023/01/15 16:11:52;;;;;;;;;;;;;;;;;;5110408;28;19912;-68
2023/01/15 16:14:18;;;;;;;;;;;;;;;;;;5110792;28;19908;-69
2023/01/15 16:16:45;;;;;;;;;;;;;;;;;;5110422;28;19965;-70
2023/01/15 16:19:12;;;;;;;;;;;;;;;;;;5110825;28;19908;-69
2023/01/15 16:21:38;;;;;;;;;;;;;;;;;;5110553;28;20272;-69
2023/01/15 16:24:04;;;;;;;;;;;;;;;;;;5110228;28;19957;-69
2023/01/15 16:26:30;;;;;;;;;;;;;;;;;;5110680;28;19908;-67
2023/01/15 16:28:55;;;;;;;;;;;;;;;;;;5110670;28;19908;-69
2023/01/15 16:31:21;;;;;;;;;;;;;;;;;;5109330;28;19912;-69
2023/01/15 16:33:47;;;;;;;;;;;;;;;;;;5096479;28;20003;-68
2023/01/15 16:36:13;;;;;;;;;;;;;;;;;;5096924;28;19961;-69
2023/01/15 16:38:39;;;;;;;;;;;;;;;;;;5096446;28;19908;-69
2023/01/15 16:41:05;;;;;;;;;;;;;;;;;;5096719;28;19920;-69
2023/01/15 16:43:31;;;;;;;;;;;;;;;;;;5096627;28;19915;-70
2023/01/15 16:45:57;;;;;;;;;;;;;;;;;;5096210;28;20006;-69
2023/01/15 16:48:23;;;;;;;;;;;;;;;;;;5096595;28;19909;-70
2023/01/15 16:50:49;;;;;;;;;;;;;;;;;;5096549;28;20446;-69
2023/01/15 16:53:15;;;;;;;;;;;;;;;;;;5096089;28;19908;-69
2023/01/15 16:55:41;;;;;;;;;;;;;;;;;;5096430;28;20002;-69
2023/01/15 16:58:07;;;;;;;;;;;;;;;;;;5096384;28;19909;-69
2023/01/15 17:00:33;;;;;;;;;;;;;;;;;;5094585;28;19947;-69
2023/01/15 17:02:59;;;;;;;;;;;;;;;;;;5095105;28;19912;-69
2023/01/15 17:05:25;;;;;;;;;;;;;;;;;;5096427;28;19908;-68
2023/01/15 17:07:52;;;;;;;;;;;;;;;;;;5095824;28;20007;-69
2023/01/15 17:10:18;;;;;;;;;;;;;;;;;;5096139;28;19908;-69
2023/01/15 17:12:44;;;;;;;;;;;;;;;;;;5096330;28;19908;-69
2023/01/15 17:15:10;;;;;;;;;;;;;;;;;;5095576;28;20053;-69
2023/01/15 17:17:36;;;;;;;;;;;;;;;;;;5096035;28;19908;-69
2023/01/15 17:20:02;;;;;;;;;;;;;;;;;;5094062;28;19908;-68
2023/01/15 17:22:28;;;;;;;;;;;;;;;;;;5094646;28;20024;-69
2023/01/15 17:24:54;;;;;;;;;;;;;;;;;;5095862;28;19962;-70
2023/01/15 17:27:20;;;;;;;;;;;;;;;;;;5094163;28;19908;-69
2023/01/15 17:29:46;;;;;;;;;;;;;;;;;;5095753;28;20326;-70
2023/01/15 17:32:12;;;;;;;;;;;;;;;;;;5095828;28;19923;-70
2023/01/15 17:34:38;;;;;;;;;;;;;;;;;;5095382;28;19912;-69
2023/01/15 17:37:04;;;;;;;;;;;;;;;;;;5094377;28;20410;-69
2023/01/15 17:39:30;;;;;;;;;;;;;;;;;;5095603;28;19980;-69
2023/01/15 17:41:56;;;;;;;;;;;;;;;;;;5095129;28;20283;-69
2023/01/15 17:44:22;;;;;;;;;;;;;;;;;;5094498;28;19908;-69
2023/01/15 17:46:48;;;;;;;;;;;;;;;;;;5095408;28;20356;-69
2023/01/15 17:49:14;;;;;;;;;;;;;;;;;;5095039;28;19912;-70
2023/01/15 17:51:40;;;;;;;;;;;;;;;;;;5095407;28;20345;-69
2023/01/15 17:54:06;;;;;;;;;;;;;;;;;;5095289;28;19908;-69
2023/01/15 18:07:44;;;;;;;;;;;;;;;;;;5095056;28;19934;-69
2023/01/15 18:10:10;;;;;;;;;;;;;;;;;;5094735;28;20360;-69
2023/01/15 18:12:36;;;;;;;;;;;;;;;;;;5095340;28;20360;-70
2023/01/15 18:15:01;;;;;;;;;;;;;;;;;;5094875;28;19908;-72
2023/01/15 18:17:30;;;;;;;;;;;;;;;;;;5094479;28;20337;-69
2023/01/15 18:19:56;;;;;;;;;;;;;;;;;;5094551;28;19915;-69
2023/01/15 18:22:21;;;;;;;;;;;;;;;;;;5093640;28;19912;-69
2023/01/15 18:24:47;;;;;;;;;;;;;;;;;;5094296;28;19908;-69
2023/01/15 18:27:13;;;;;;;;;;;;;;;;;;5094786;28;19912;-70
2023/01/15 18:29:39;;;;;;;;;;;;;;;;;;5094655;28;19963;-69
2023/01/15 18:32:05;;;;;;;;;;;;;;;;;;5094233;28;19915;-69
2023/01/15 18:34:31;;;;;;;;;;;;;;;;;;5094570;28;20288;-69
2023/01/15 18:36:57;;;;;;;;;;;;;;;;;;5094469;28;19915;-69
2023/01/15 18:39:23;;;;;;;;;;;;;;;;;;5094134;28;19912;-68
2023/01/15 18:47:00;;;;;;;;;;;;;;;;;;5094417;28;19914;-69
2023/01/15 18:49:26;;;;;;;;;;;;;;;;;;5093013;28;19909;-68
2023/01/15 18:54:36;;;;;;;;;;;;;;;;;;5094089;28;19916;-69
2023/01/15 18:57:02;;;;;;;;;;;;;;;;;;5094130;28;19908;-69
2023/01/15 18:59:28;;;;;;;;;;;;;;;;;;5093948;28;19961;-68
2023/01/15 19:01:55;;;;;;;;;;;;;;;;;;5092860;28;20364;-68
2023/01/15 19:04:21;;;;;;;;;;;;;;;;;;5092807;28;19957;-69
2023/01/15 19:06:47;;;;;;;;;;;;;;;;;;5093661;28;19908;-68
2023/01/15 19:09:15;;;;;;;;;;;;;;;;;;5094345;28;19999;-70
2023/01/15 19:11:41;;;;;;;;;;;;;;;;;;5094089;28;19931;-69
2023/01/15 19:19:36;;;;;;;;;;;;;;;;;;5093723;28;19970;-69